Time;durP1;ratioP1;P1;durP2;ratioP2;P2;SDS_P1;SDS_P2;PMS_P1;PMS_P2;Temp;Humidity;BMP_temperature;BMP_pressure;BME280_temperature;BME280_humidity;BME280_pressure;Samples;Min_cycle;Max_cycle;Signal;HPM_P1;HPM_P2
2023/01/26 05:01:48;;;;;;;42.17;18.33;;;1.50;99.90;;;;;;5391338;23;20503;-71
2023/01/26 05:04:15;;;;;;;42.33;18.00;;;1.50;99.90;;;;;;4987618;28;20526;-71
2023/01/26 05:06:41;;;;;;;43.30;17.33;;;1.50;99.90;;;;;;4987930;28;20463;-71
2023/01/26 05:09:08;;;;;;;36.07;16.87;;;1.50;99.90;;;;;;4988545;28;20452;-71
2023/01/26 05:11:36;;;;;;;37.40;16.53;;;1.50;99.90;;;;;;4988366;28;20482;-71
2023/01/26 05:14:02;;;;;;;31.73;14.83;;;1.40;99.90;;;;;;4987693;28;20459;-71
2023/01/26 05:16:29;;;;;;;36.10;15.33;;;1.40;99.90;;;;;;4988765;28;20451;-71
2023/01/26 05:18:57;;;;;;;30.10;14.00;;;1.40;99.90;;;;;;4988335;28;20470;-72
2023/01/26 05:21:26;;;;;;;36.30;14.97;;;1.40;99.90;;;;;;5000459;28;20477;-72
2023/01/26 05:23:53;;;;;;;32.03;15.40;;;1.40;99.90;;;;;;5006755;28;21330;-71
2023/01/26 05:26:20;;;;;;;37.50;17.03;;;1.40;99.90;;;;;;5007661;28;20443;-71
2023/01/26 05:28:46;;;;;;;35.40;14.00;;;1.50;99.90;;;;;;5007846;28;20454;-71
2023/01/26 05:31:13;;;;;;;34.50;16.17;;;1.40;99.90;;;;;;5007333;28;20473;-72
2023/01/26 05:33:40;;;;;;;35.10;15.33;;;1.40;99.90;;;;;;5006418;28;20459;-72
2023/01/26 05:36:09;;;;;;;34.93;16.20;;;1.40;99.90;;;;;;5007701;28;20451;-72
2023/01/26 05:38:35;;;;;;;32.23;14.40;;;1.40;99.90;;;;;;5007141;28;20459;-62
2023/01/26 05:41:02;;;;;;;29.90;14.57;;;1.30;99.90;;;;;;5007115;28;21009;-62
2023/01/26 05:43:29;;;;;;;31.53;14.17;;;1.40;99.90;;;;;;5006312;28;21036;-62
2023/01/26 05:45:56;;;;;;;33.40;15.77;;;1.30;99.90;;;;;;5007496;28;20498;-72
2023/01/26 05:48:23;;;;;;;29.17;13.37;;;1.30;99.90;;;;;;5007376;28;20455;-72
2023/01/26 05:50:50;;;;;;;31.73;13.10;;;1.30;99.90;;;;;;5007083;28;20477;-72
2023/01/26 05:53:18;;;;;;;29.90;13.50;;;1.30;99.90;;;;;;5006485;28;20461;-72
2023/01/26 05:55:45;;;;;;;31.93;14.47;;;1.30;99.90;;;;;;5006592;28;20454;-72
2023/01/26 05:58:11;;;;;;;31.13;14.27;;;1.30;99.90;;;;;;5006946;28;20462;-72
2023/01/26 06:00:38;;;;;;;28.00;13.53;;;1.30;99.90;;;;;;5006248;28;20491;-73
2023/01/26 06:03:05;;;;;;;26.90;12.67;;;1.40;99.90;;;;;;4986728;28;20510;-72
2023/01/26 06:05:32;;;;;;;27.90;13.53;;;1.40;99.90;;;;;;4987097;28;20883;-72
2023/01/26 06:07:59;;;;;;;29.63;13.10;;;1.40;99.90;;;;;;4986412;28;20463;-72
2023/01/26 06:10:27;;;;;;;25.40;12.60;;;1.40;99.90;;;;;;4986990;28;20467;-72
2023/01/26 06:12:54;;;;;;;26.30;12.00;;;1.40;99.90;;;;;;4986783;28;20488;-71
2023/01/26 06:15:20;;;;;;;26.37;12.37;;;1.40;99.90;;;;;;4986863;28;20468;-72
2023/01/26 06:17:47;;;;;;;29.70;13.87;;;1.40;99.90;;;;;;4987107;28;20451;-72
2023/01/26 06:20:14;;;;;;;30.73;12.57;;;1.40;99.90;;;;;;4987032;28;20758;-72
2023/01/26 06:22:41;;;;;;;25.60;13.30;;;1.40;99.90;;;;;;4987118;28;20873;-71
2023/01/26 06:25:08;;;;;;;18.57;11.10;;;1.40;99.90;;;;;;4986202;28;20495;-72
2023/01/26 06:27:40;;;;;;;23.13;10.90;;;1.40;99.90;;;;;;4986429;28;21075;-72
2023/01/26 06:30:09;;;;;;;19.13;9.73;;;1.40;99.90;;;;;;4986957;28;20440;-72
2023/01/26 06:32:36;;;;;;;23.47;11.90;;;1.40;99.90;;;;;;4986797;28;20494;-72
2023/01/26 06:35:07;;;;;;;23.33;11.70;;;1.30;99.90;;;;;;4986047;28;20450;-72
2023/01/26 06:37:34;;;;;;;21.90;11.33;;;1.30;99.90;;;;;;4987065;28;20552;-72
2023/01/26 06:40:00;;;;;;;26.67;12.83;;;1.20;99.90;;;;;;4986888;28;21275;-72
2023/01/26 06:42:27;;;;;;;20.97;11.63;;;1.20;99.90;;;;;;4986453;28;20475;-72
2023/01/26 06:44:57;;;;;;;25.57;12.60;;;1.20;99.90;;;;;;4986406;28;20499;-72
2023/01/26 06:47:24;;;;;;;22.70;11.10;;;1.30;99.90;;;;;;4986766;28;20432;-72
2023/01/26 06:49:51;;;;;;;20.57;11.37;;;1.40;99.90;;;;;;4986550;28;20547;-72
2023/01/26 06:52:30;;;;;;;20.27;10.13;;;1.40;99.90;;;;;;4986683;28;20475;-72
2023/01/26 06:54:59;;;;;;;20.03;10.30;;;1.40;99.90;;;;;;4986171;28;20463;-72
2023/01/26 06:57:26;;;;;;;19.93;9.57;;;1.50;99.90;;;;;;4986768;28;20461;-72
2023/01/26 06:59:53;;;;;;;19.63;9.97;;;1.50;99.90;;;;;;4986486;28;20453;-72
2023/01/26 07:02:22;;;;;;;23.57;10.50;;;1.60;99.90;;;;;;4986086;28;20550;-72
2023/01/26 07:04:49;;;;;;;24.30;10.77;;;1.60;99.90;;;;;;4985643;28;20521;-72
2023/01/26 07:07:16;;;;;;;22.17;10.37;;;1.70;99.90;;;;;;4985343;28;20970;-71
2023/01/26 07:09:43;;;;;;;21.57;10.30;;;1.60;99.90;;;;;;4986148;28;20460;-72
2023/01/26 07:12:10;;;;;;;20.33;10.97;;;1.60;99.90;;;;;;4985841;28;20476;-72
2023/01/26 07:14:37;;;;;;;24.97;12.53;;;1.60;99.90;;;;;;4986022;28;20460;-72
2023/01/26 07:17:03;;;;;;;21.80;11.47;;;1.60;99.90;;;;;;4986403;28;20962;-72
2023/01/26 07:19:32;;;;;;;51.60;14.70;;;1.60;99.90;;;;;;4985991;28;20452;-72
2023/01/26 07:21:59;;;;;;;19.53;9.33;;;1.60;99.90;;;;;;4986304;28;20524;-72
2023/01/26 07:24:26;;;;;;;19.37;9.90;;;1.60;99.90;;;;;;4985593;28;20495;-72
2023/01/26 07:26:53;;;;;;;22.20;9.70;;;1.60;99.90;;;;;;4986650;28;20463;-71
2023/01/26 07:29:19;;;;;;;23.13;10.60;;;1.60;99.90;;;;;;4985924;28;20459;-72
2023/01/26 07:31:46;;;;;;;23.73;10.97;;;1.70;99.90;;;;;;4985029;28;20490;-72
2023/01/26 07:34:13;;;;;;;24.77;12.80;;;1.70;99.90;;;;;;4984898;28;20448;-72
2023/01/26 07:36:41;;;;;;;30.60;13.50;;;1.80;99.90;;;;;;4984142;28;20903;-72
2023/01/26 07:39:08;;;;;;;28.70;13.90;;;1.70;99.90;;;;;;4984918;28;20451;-73
2023/01/26 07:41:35;;;;;;;26.57;11.90;;;1.70;99.90;;;;;;4985151;28;20648;-72
2023/01/26 07:44:03;;;;;;;28.30;12.47;;;1.70;99.90;;;;;;4985224;28;20501;-73
2023/01/26 07:46:30;;;;;;;27.67;12.30;;;1.70;99.90;;;;;;4985109;28;20471;-73
2023/01/26 07:48:57;;;;;;;25.63;14.10;;;1.70;99.90;;;;;;4985526;28;20460;-72
2023/01/26 07:51:24;;;;;;;24.83;12.83;;;1.70;99.90;;;;;;4985442;28;20594;-72
2023/01/26 07:53:52;;;;;;;24.97;13.23;;;1.80;99.90;;;;;;4985091;28;20451;-72
2023/01/26 07:56:19;;;;;;;28.67;12.90;;;1.80;99.90;;;;;;4985848;28;20455;-72
2023/01/26 07:58:51;;;;;;;27.30;12.83;;;1.80;99.90;;;;;;4985259;28;20963;-72
2023/01/26 08:01:18;;;;;;;30.00;13.87;;;1.70;99.90;;;;;;4984853;28;20498;-72
2023/01/26 08:03:45;;;;;;;26.30;12.90;;;1.60;99.90;;;;;;4984667;28;20494;-72
2023/01/26 08:06:13;;;;;;;23.97;12.07;;;1.60;99.90;;;;;;4985329;28;20463;-73
2023/01/26 08:08:40;;;;;;;30.03;13.63;;;1.70;99.90;;;;;;4985682;28;20730;-73
2023/01/26 08:11:09;;;;;;;25.40;13.87;;;1.70;99.90;;;;;;4985427;28;20887;-73
2023/01/26 08:13:37;;;;;;;24.80;12.47;;;1.80;99.90;;;;;;4985043;28;20443;-73
2023/01/26 08:16:05;;;;;;;28.60;12.30;;;1.80;99.90;;;;;;4985243;28;20473;-73
2023/01/26 08:18:33;;;;;;;27.43;13.33;;;1.80;99.90;;;;;;4986677;28;20535;-73
2023/01/26 08:21:00;;;;;;;24.37;11.60;;;1.80;99.90;;;;;;4988765;28;20479;-73
2023/01/26 08:23:27;;;;;;;27.73;12.23;;;1.70;99.90;;;;;;4988322;28;20470;-73
2023/01/26 08:25:54;;;;;;;23.50;10.90;;;1.70;99.90;;;;;;4988602;28;20459;-73
2023/01/26 08:28:22;;;;;;;23.37;11.37;;;1.60;99.90;;;;;;4988902;28;20458;-74
2023/01/26 08:30:49;;;;;;;24.47;12.00;;;1.60;99.90;;;;;;4988286;28;20475;-74
2023/01/26 08:33:16;;;;;;;23.77;11.57;;;1.70;99.90;;;;;;4988196;28;20948;-73
2023/01/26 08:35:42;;;;;;;27.80;11.87;;;1.60;99.90;;;;;;4988823;28;20450;-73
2023/01/26 08:38:09;;;;;;;22.33;11.37;;;1.70;99.90;;;;;;4988481;28;20747;-74
2023/01/26 08:40:36;;;;;;;25.30;13.70;;;1.60;99.90;;;;;;4988417;28;20501;-73
2023/01/26 08:43:03;;;;;;;27.10;12.27;;;1.60;99.90;;;;;;4988197;28;20864;-73
2023/01/26 08:45:32;;;;;;;24.37;11.10;;;1.70;99.90;;;;;;4988236;28;20503;-73
2023/01/26 08:47:59;;;;;;;25.10;12.20;;;1.70;99.90;;;;;;4988321;28;20466;-73
2023/01/26 08:50:26;;;;;;;21.40;11.50;;;1.70;99.90;;;;;;4988142;28;20455;-74
2023/01/26 08:52:56;;;;;;;27.23;13.23;;;1.60;99.90;;;;;;4987912;28;21002;-73
2023/01/26 08:55:23;;;;;;;24.43;12.60;;;1.60;99.90;;;;;;4988255;28;20455;-73
2023/01/26 08:57:53;;;;;;;26.13;12.10;;;1.60;99.90;;;;;;4987785;28;20936;-73
2023/01/26 09:00:21;;;;;;;22.60;11.70;;;1.60;99.90;;;;;;4988285;28;20474;-73
2023/01/26 09:02:51;;;;;;;18.87;10.60;;;1.70;99.90;;;;;;4988156;28;20440;-73
2023/01/26 09:05:17;;;;;;;23.63;11.87;;;1.70;99.90;;;;;;4987638;28;21128;-73
2023/01/26 09:07:44;;;;;;;29.70;11.80;;;1.70;99.90;;;;;;4988224;28;20466;-73
2023/01/26 09:10:12;;;;;;;19.03;9.73;;;1.70;99.90;;;;;;4987873;28;20455;-73
2023/01/26 09:12:39;;;;;;;21.70;10.70;;;1.60;99.90;;;;;;4987933;28;20467;-74
2023/01/26 09:15:07;;;;;;;18.90;10.03;;;1.50;99.90;;;;;;4987211;28;20451;-74
2023/01/26 09:17:34;;;;;;;21.27;10.33;;;1.50;99.90;;;;;;4987959;28;20451;-73
2023/01/26 09:20:02;;;;;;;18.23;10.03;;;1.60;99.90;;;;;;4987931;28;20456;-73
2023/01/26 09:22:29;;;;;;;21.87;10.63;;;1.60;99.90;;;;;;4987489;28;20550;-73
2023/01/26 09:24:56;;;;;;;18.30;9.80;;;1.50;99.90;;;;;;4986515;28;20491;-73
2023/01/26 09:27:23;;;;;;;17.70;10.00;;;1.40;99.90;;;;;;4987812;28;20456;-74
2023/01/26 09:29:51;;;;;;;18.10;10.37;;;1.30;99.90;;;;;;4987038;28;20822;-73
2023/01/26 09:32:17;;;;;;;15.03;9.13;;;1.30;99.90;;;;;;4987548;28;20483;-73
2023/01/26 09:34:44;;;;;;;17.23;9.70;;;1.30;99.90;;;;;;4987084;28;20466;-73
2023/01/26 09:37:13;;;;;;;17.97;10.10;;;1.40;99.90;;;;;;4987404;28;20466;-73
2023/01/26 09:39:40;;;;;;;22.53;11.23;;;1.30;99.90;;;;;;4987669;28;20462;-73
2023/01/26 09:42:27;;;;;;;17.87;10.20;;;1.30;99.90;;;;;;4987216;28;20464;-73
2023/01/26 09:45:02;;;;;;;25.00;11.57;;;1.20;99.90;;;;;;4986961;28;21025;-72
2023/01/26 09:47:36;;;;;;;25.77;13.07;;;1.30;99.90;;;;;;4987306;28;20947;-72
2023/01/26 09:50:09;;;;;;;24.57;11.10;;;1.30;99.90;;;;;;4987179;28;20459;-72
2023/01/26 09:52:48;;;;;;;20.27;10.57;;;1.20;99.90;;;;;;4987504;28;21007;-72
2023/01/26 09:55:19;;;;;;;18.73;10.80;;;1.20;99.90;;;;;;4987479;28;20450;-73
2023/01/26 09:57:50;;;;;;;23.50;10.50;;;1.20;99.90;;;;;;4987854;28;20436;-73
2023/01/26 10:00:22;;;;;;;19.40;9.73;;;1.20;99.90;;;;;;4987007;28;20462;-73
2023/01/26 10:03:05;;;;;;;23.57;11.47;;;1.30;99.90;;;;;;4987411;28;20452;-73
2023/01/26 10:05:39;;;;;;;23.07;11.27;;;1.20;99.90;;;;;;4987290;28;20983;-73
2023/01/26 10:08:12;;;;;;;19.30;10.10;;;1.30;99.90;;;;;;4986959;28;20527;-73
2023/01/26 10:10:44;;;;;;;21.70;10.60;;;1.30;99.90;;;;;;4986920;28;20482;-73
2023/01/26 10:13:14;;;;;;;26.43;11.27;;;1.30;99.90;;;;;;4986470;28;20467;-73
2023/01/26 10:15:44;;;;;;;23.50;9.93;;;1.30;99.90;;;;;;4987280;28;20455;-73
